Latest Coastal Weather Observations for Merimbula

IDN60701

Issued at 1:51 pm EDT Saturday 20 December 2014 (issued every 10 minutes, with the page automatically refreshed every 10 minutes)

About coastal observations | Map of coastal stations | Coastal observations for NSW | Marine services | Other Formats
Station Details ID: 069147 Name: MERIMBULA AIRPORT AWS Lat: -36.91 Lon: 149.90 Height: 1.5 m
Data from the previous 72 hours. | See also: Recent months at Merimbula
Date/Time
EDT
Temp

°C
Wind Pressure Rain
since 9am
mm
Weather Cloud Vis
km
Sea
Height
m
Swell
Dir
 
Speed
knots
Gust
knots
hPa Trend Height
m
Period
s
Dir
20/01:30pm 20.6 E 8 13 1017.4 - 0.0 - - 10 - - - -
20/01:00pm 20.2 E 8 12 1017.6 - 0.0 - - 10 - - - -
20/12:30pm 21.1 E 7 11 1017.5 - 0.0 - - 10 - - - -
20/12:00pm 19.9 E 8 11 1017.6 - 0.0 - - 10 - - - -
20/11:30am 19.6 E 8 11 1017.6 - 0.0 - - 10 - - - -
20/11:00am 19.2 E 8 11 1017.7 - 0.0 - - 10 - - - -
20/10:30am 19.2 E 8 11 1017.6 - 0.0 - - 10 - - - -
20/10:00am 19.0 E 8 12 1017.7 - 0.0 - - 10 - - - -
20/09:30am 18.9 E 5 9 1017.7 - 0.0 - - 10 - - - -
20/09:00am 18.6 ENE 3 6 1017.9 - 0.0 - - 10 - - - -
20/08:30am 18.0 WNW 5 8 1018.0 - 0.0 - - 10 - - - -
20/08:00am 16.8 W 5 8 1017.9 - 0.0 - - 10 - - - -
20/07:30am 15.4 NW 1 5 1017.8 - 0.0 - - 10 - - - -
20/06:30am 10.6 SSW 2 4 1017.5 - 0.0 - - 10 - - - -
20/06:00am 10.0 SSW 2 4 1017.4 - 0.0 - - 10 - - - -
20/05:30am 9.9 SSW 6 8 1017.3 - 0.0 - - 10 - - - -
20/05:00am 9.8 S 4 5 1017.3 - 0.0 - - 10 - - - -
20/04:30am 9.6 S 1 4 1017.2 - 0.0 - - 10 - - - -
20/04:00am 9.4 CALM 0 3 1017.3 - 0.0 - - 10 - - - -
20/03:30am 10.1 SW 4 5 1017.5 - 0.0 - - 10 - - - -
20/03:00am 10.2 W 3 5 1017.6 - 0.0 - - 10 - - - -
20/02:30am 11.0 SW 4 5 1017.9 - 0.0 - - 10 - - - -
20/02:00am 11.3 CALM 0 0 1018.1 - 0.0 - - 10 - - - -
20/01:30am 11.8 NNW 5 7 1018.4 - 0.0 - - 10 - - - -
20/01:00am 11.0 CALM 0 0 1018.6 - 0.0 - - 10 - - - -
20/12:30am 12.3 CALM 0 0 1018.8 - 0.0 - - 10 - - - -
 
Date/Time
EDT
Temp

°C
Wind Pressure Rain
since 9am
mm
Weather Cloud Vis
km
Sea
Height
m
Swell
Dir
 
Speed
knots
Gust
knots
hPa Trend Height
m
Period
s
Dir
19/11:30pm 13.2 SSE 2 4 1018.9 - 0.0 - - 10 - - - -
19/11:00pm 14.2 SW 3 6 1018.9 - 0.0 - - 10 - - - -
19/10:30pm 13.7 CALM 0 0 1018.8 - 0.0 - - 10 - - - -
19/10:00pm 15.4 SSE 5 8 1018.6 - 0.0 - - 10 - - - -
19/09:30pm 15.8 SE 7 10 1018.2 - 0.0 - Partly cloudy 10 - - - -
19/09:00pm 16.1 SE 8 11 1017.9 - 0.0 - Mostly clear 10 - - - -
19/08:30pm 16.6 SSE 8 11 1017.5 - 0.0 - Partly cloudy 10 - - - -
19/08:00pm 17.0 SSE 8 13 1016.8 - 0.0 - Partly cloudy 10 - - - -
19/07:30pm 17.9 SSE 10 16 1016.0 - 0.0 - - 10 - - - -
19/07:00pm 18.7 SSE 13 19 1015.5 - 0.0 - - 10 - - - -
19/06:30pm 19.2 S 13 22 1014.8 - 0.0 - - 10 - - - -
19/06:00pm 20.0 S 12 18 1014.4 - 0.0 - - 10 - - - -
19/05:30pm 20.4 S 13 20 1014.0 - 0.0 - - 10 - - - -
19/05:00pm 20.8 S 14 21 1013.6 - 0.0 - - 10 - - - -
19/04:30pm 21.5 S 13 19 1013.7 - 0.0 - - 10 - - - -
19/04:00pm 21.4 S 15 23 1013.6 - 0.0 - - 10 - - - -
19/03:30pm 22.2 SSW 13 23 1013.5 - 0.0 - Partly cloudy 10 - - - -
19/03:00pm 22.0 SSW 11 16 1013.4 - 0.0 - Mostly clear 10 - - - -
19/02:30pm 22.0 WSW 8 15 1013.3 - 0.0 - Partly cloudy 10 - - - -
19/02:00pm 22.1 SW 12 18 1013.4 - 0.0 - - 10 - - - -
19/01:30pm 21.0 SW 11 18 1013.4 - 0.0 - Partly cloudy 10 - - - -
19/01:00pm 20.9 SSW 11 18 1013.3 - 0.0 - Partly cloudy 10 - - - -
19/12:30pm 22.1 SW 11 16 1013.2 - 0.0 - - 10 - - - -
19/12:00pm 21.3 SW 12 18 1013.3 - 0.0 - Mostly clear 10 - - - -
19/11:30am 21.0 SSW 11 18 1013.2 - 0.0 - - 10 - - - -
19/11:00am 20.5 SSW 10 16 1013.1 - 0.0 - - 10 - - - -
19/10:30am 19.7 SSW 11 19 1013.5 - 0.0 - - 10 - - - -
19/10:00am 19.3 SSW 15 21 1013.4 - 0.0 - - 10 - - - -
19/09:48am 19.0 SSW 15 26 1013.5 - 0.0 - - 10 - - - -
19/09:30am 19.1 SSW 14 24 1013.6 - 0.0 - - 10 - - - -
19/09:00am 18.3 SSW 10 16 1013.4 - 0.0 - - 10 - - - -
19/08:30am 18.0 SW 9 15 1013.3 - 0.0 - - 10 - - - -
19/08:00am 17.2 W 7 13 1013.2 - 0.0 - - 10 - - - -
19/07:30am 16.3 WSW 5 10 1012.9 - 0.0 - - 10 - - - -
19/07:00am 15.8 WNW 7 10 1012.5 - 0.0 - - 10 - - - -
19/06:30am 15.1 WSW 9 19 1012.1 - 0.0 - - 10 - - - -
19/06:00am 13.8 WSW 8 11 1011.8 - 0.0 - - 10 - - - -
19/05:30am 13.0 WSW 5 8 1011.3 - 0.0 - - 10 - - - -
19/05:00am 13.8 WSW 6 10 1010.8 - 0.0 - - 10 - - - -
19/04:30am 14.2 SW 6 9 1010.2 - 0.0 - - 10 - - - -
19/04:00am 14.7 SW 6 11 1010.0 - 0.0 - - 10 - - - -
19/03:30am 15.1 SW 8 14 1009.6 - 0.0 - - 10 - - - -
19/03:00am 15.0 SW 7 12 1009.5 - 0.0 - - 10 - - - -
19/02:30am 15.5 SW 9 15 1009.4 - 0.0 - - 10 - - - -
19/02:00am 15.3 SW 5 9 1009.2 - 0.0 - - 10 - - - -
19/01:30am 15.2 SSW 5 11 1008.8 - 0.0 - - 10 - - - -
19/01:00am 15.3 S 6 8 1009.1 - 0.0 - Partly cloudy 10 - - - -
19/12:30am 15.7 SSW 11 18 1008.7 - 0.0 - - 10 - - - -
19/12:00am 16.5 S 10 16 1008.8 - 0.0 - - 10 - - - -
 
Date/Time
EDT
Temp

°C
Wind Pressure Rain
since 9am
mm
Weather Cloud Vis
km
Sea
Height
m
Swell
Dir
 
Speed
knots
Gust
knots
hPa Trend Height
m
Period
s
Dir
18/11:30pm 17.1 SW 13 22 1007.8 - 0.0 - - 10 - - - -
18/11:00pm 17.5 SW 12 22 1007.4 - 0.0 - - 10 - - - -
18/10:40pm 18.2 WSW 15 25 1007.7 - 0.0 - - 10 - - - -
18/10:30pm 18.2 SW 12 20 1007.3 - 0.0 - - 10 - - - -
18/10:00pm 18.8 SW 15 22 1007.1 - 0.0 - - 10 - - - -
18/09:30pm 19.2 S 7 11 1006.5 - 0.0 - Partly cloudy 10 - - - -
18/09:14pm 19.0 SW 7 12 1006.3 - 0.0 - - 7 - - - -
18/09:00pm 18.0 ESE 1 5 1005.6 - 0.0 - - 5 - - - -
18/08:36pm 18.4 ENE 4 5 1005.4 - 0.0 - - 5 - - - -
18/08:30pm 18.5 E 4 7 1005.3 - 0.0 - - 6 - - - -
18/08:00pm 19.1 ENE 5 7 1005.4 - 0.0 - - 8 - - - -
18/07:30pm 19.6 E 6 8 1005.2 - 0.0 - - 10 - - - -
18/07:00pm 20.9 E 7 11 1004.8 - 0.0 - - 10 - - - -
18/06:30pm 21.3 NE 8 13 1004.8 - 0.0 - - 10 - - - -
18/06:00pm 21.6 NE 10 15 1004.4 - 0.0 - Mostly clear 10 - - - -
18/05:30pm 20.8 NE 10 15 1004.3 - 0.0 - - 10 - - - -
18/05:00pm 20.7 NE 11 16 1004.2 - 0.0 - Partly cloudy 10 - - - -
18/04:30pm 21.9 NE 10 17 1004.1 - 0.0 - - 10 - - - -
18/04:00pm 22.5 NE 12 20 1004.1 - 0.0 - - 10 - - - -
18/03:30pm 22.3 NE 13 19 1004.1 - 0.0 - - 10 - - - -
18/03:00pm 21.9 NE 14 22 1004.1 - 0.0 - - 10 - - - -
18/02:30pm 22.7 NE 13 19 1004.5 - 0.0 - - 10 - - - -
18/02:00pm 22.6 NE 12 19 1004.7 - 0.0 - - 10 - - - -
18/01:30pm 22.9 NE 12 18 1005.0 - 0.0 - - 10 - - - -
18/01:00pm 22.2 NE 13 21 1005.6 - 0.0 - - 10 - - - -
18/12:30pm 22.5 NE 12 21 1006.1 - 0.0 - - 10 - - - -
18/12:00pm 22.5 NE 11 21 1006.7 - 0.0 - - 10 - - - -
18/11:30am 21.6 NE 11 19 1007.0 - 0.0 - - 10 - - - -
18/11:00am 21.0 NE 11 19 1007.4 - 0.0 - - 10 - - - -
18/10:30am 21.2 NE 10 15 1007.6 - 0.0 - - 10 - - - -
18/10:00am 20.5 NE 10 15 1008.2 - 0.0 - - 10 - - - -
18/09:30am 19.4 NE 7 9 1008.5 - 0.0 - - 10 - - - -
18/09:00am 19.4 ENE 7 10 1008.9 - 0.0 - - 10 - - - -
18/08:30am 18.7 NNE 5 8 1009.2 - 0.0 - - 10 - - - -
18/08:00am 17.8 NE 1 5 1009.0 - 0.0 - - 10 - - - -
18/07:30am 16.9 CALM 0 0 1009.0 - 0.0 - - 10 - - - -
18/07:00am 15.9 CALM 0 0 1008.9 - 0.0 - - 10 - - - -
18/06:30am 15.4 N 2 5 1008.9 - 0.0 - - 10 - - - -
18/06:00am 15.2 N 5 8 1009.1 - 0.0 - - 10 - - - -
18/05:30am 15.5 N 6 9 1009.1 - 0.0 - - 10 - - - -
18/05:00am 15.3 N 5 8 1009.2 - 0.0 - - 10 - - - -
18/04:30am 15.3 CALM 0 0 1008.9 - 0.0 - - 10 - - - -
18/04:00am 15.2 CALM 0 0 1009.0 - 0.0 - - 10 - - - -
18/03:30am 15.0 CALM 0 0 1009.2 - 0.0 - Partly cloudy 10 - - - -
18/03:00am 15.2 CALM 0 0 1009.6 - 0.0 - Partly cloudy 10 - - - -
18/02:30am 15.7 CALM 0 0 1009.8 - 0.0 - Partly cloudy 10 - - - -
18/02:00am 15.8 CALM 0 0 1010.0 - 0.0 - Partly cloudy 10 - - - -
18/01:30am 15.9 CALM 0 0 1010.3 - 0.0 - Cloudy 10 - - - -
18/01:00am 16.0 N 4 6 1010.6 - 0.0 - Cloudy 10 - - - -
18/12:30am 16.2 NNE 4 6 1011.0 - 0.0 - Partly cloudy 10 - - - -
18/12:00am 16.2 NW 6 9 1011.4 - 0.0 - Cloudy 10 - - - -
 
Date/Time
EDT
Temp

°C
Wind Pressure Rain
since 9am
mm
Weather Cloud Vis
km
Sea
Height
m
Swell
Dir
 
Speed
knots
Gust
knots
hPa Trend Height
m
Period
s
Dir
17/11:30pm 16.0 CALM 0 0 1011.6 - 0.0 - Cloudy 10 - - - -
17/11:00pm 15.5 CALM 0 0 1011.7 - 0.0 - Partly cloudy 10 - - - -
17/10:30pm 16.0 CALM 0 0 1011.6 - 0.0 - Cloudy 10 - - - -
17/10:00pm 16.0 CALM 0 0 1011.4 - 0.0 - Cloudy 10 - - - -
17/09:30pm 16.1 S 3 4 1011.3 - 0.0 - Cloudy 10 - - - -
17/09:00pm 16.3 SSE 4 5 1011.1 - 0.0 - Cloudy 10 - - - -
17/08:30pm 16.3 SE 4 7 1010.8 - 0.0 - Cloudy 10 - - - -
17/08:00pm 16.5 SE 5 8 1010.6 - 0.0 - Cloudy 10 - - - -
17/07:30pm 16.5 SE 8 13 1009.9 - 0.0 - Partly cloudy 10 - - - -
17/07:00pm 16.6 SE 10 15 1009.4 - 0.0 - Partly cloudy 10 - - - -
17/06:30pm 17.0 SE 11 17 1009.0 - 0.0 - Partly cloudy 10 - - - -
17/06:00pm 17.9 SE 12 19 1008.8 - 0.0 - - 10 - - - -
17/05:30pm 18.1 SE 12 17 1008.7 - 0.0 - - 10 - - - -
17/05:00pm 18.2 SE 13 19 1008.5 - 0.0 - - 10 - - - -
17/04:30pm 18.1 SE 14 20 1008.3 - 0.0 - - 10 - - - -
17/04:00pm 18.5 SE 14 21 1008.0 - 0.0 - - 10 - - - -
17/03:30pm 18.9 SE 13 19 1007.8 - 0.0 - - 10 - - - -
17/03:00pm 19.1 SE 13 21 1007.7 - 0.0 - - 10 - - - -
17/02:30pm 19.2 SE 13 19 1007.3 - 0.0 - - 10 - - - -
17/02:00pm 19.5 ESE 12 18 1007.0 - 0.0 - - 10 - - - -

Other Formats:

Comma delimited format used in spreadsheet applications
http://www.bom.gov.au/fwo/IDN60701/IDN60701.95929.axf

JavaScript Object Notation format (JSON) in row-major order
http://www.bom.gov.au/fwo/IDN60701/IDN60701.95929.json